Time;durP1;ratioP1;P1;durP2;ratioP2;P2;SDS_P1;SDS_P2;PMS_P1;PMS_P2;Temp;Humidity;BMP_temperature;BMP_pressure;BME280_temperature;BME280_humidity;BME280_pressure;Samples;Min_cycle;Max_cycle;Signal;HPM_P1;HPM_P2
2022/09/14 00:01:23;;;;;;;1999.90;999.90;;;;;;;19.37;100.00;93533.53;6248628;22;20161;-59
2022/09/14 00:03:57;;;;;;;1999.90;999.90;;;;;;;19.39;100.00;93530.28;6247840;22;20173;-59
2022/09/14 00:06:23;;;;;;;1999.90;999.90;;;;;;;19.33;100.00;93537.81;6248694;23;20169;-59
2022/09/14 00:08:51;;;;;;;1999.90;999.90;;;;;;;19.27;100.00;93545.38;6247853;23;20591;-59
2022/09/14 00:11:17;;;;;;;1999.90;999.90;;;;;;;19.22;100.00;93548.88;6273516;22;20169;-59
2022/09/14 00:13:43;;;;;;;1999.90;999.90;;;;;;;19.17;100.00;93546.88;6247805;23;20258;-59
2022/09/14 00:16:18;;;;;;;1999.90;999.90;;;;;;;19.13;100.00;93551.91;6248016;23;20165;-59
2022/09/14 00:18:44;;;;;;;1999.90;999.90;;;;;;;19.04;100.00;93543.84;6246091;23;20176;-59
2022/09/14 00:21:11;;;;;;;1999.90;999.90;;;;;;;18.98;100.00;93532.03;6271766;22;20161;-59
2022/09/14 00:23:40;;;;;;;1999.90;999.90;;;;;;;18.90;100.00;93539.28;6245812;23;20173;-59
2022/09/14 00:26:11;;;;;;;1999.90;999.90;;;;;;;18.89;100.00;93532.25;6245665;22;20195;-59
2022/09/14 00:28:41;;;;;;;1999.90;999.90;;;;;;;18.94;100.00;93528.75;6272342;22;20172;-58
2022/09/14 00:31:08;;;;;;;1999.90;999.90;;;;;;;18.89;100.00;93526.72;6246501;22;20239;-59
2022/09/14 00:33:34;;;;;;;1999.90;999.90;;;;;;;18.87;100.00;93529.25;6245795;22;20185;-59
2022/09/14 00:36:05;;;;;;;1999.90;999.90;;;;;;;18.88;100.00;93522.44;6245992;22;20161;-58
2022/09/14 00:38:30;;;;;;;1999.90;999.90;;;;;;;18.92;100.00;93520.94;6271374;22;20188;-58
2022/09/14 00:40:57;;;;;;;1999.90;999.90;;;;;;;18.91;100.00;93524.22;6271588;22;20168;-57
2022/09/14 00:43:23;;;;;;;1999.90;999.90;;;;;;;18.90;100.00;93523.44;6271401;22;20169;-58
2022/09/14 00:45:49;;;;;;;1999.90;999.90;;;;;;;18.94;100.00;93512.16;6271759;22;20218;-59
2022/09/14 00:48:14;;;;;;;1999.90;999.90;;;;;;;18.94;100.00;93509.38;6271508;22;20169;-59
2022/09/14 00:50:39;;;;;;;1999.90;999.90;;;;;;;18.93;100.00;93505.09;6271497;22;20270;-59
2022/09/14 00:53:05;;;;;;;1999.90;999.90;;;;;;;18.93;100.00;93499.56;6245479;23;20185;-59
2022/09/14 00:55:32;;;;;;;1999.90;999.90;;;;;;;18.95;100.00;93497.06;6245930;22;20157;-59
2022/09/14 00:57:58;;;;;;;1999.90;999.90;;;;;;;18.92;100.00;93498.81;6245846;22;20193;-59
2022/09/14 01:00:27;;;;;;;1999.90;999.90;;;;;;;18.93;100.00;93488.50;6272040;22;20173;-58
2022/09/14 01:02:53;;;;;;;1999.90;999.90;;;;;;;18.89;100.00;93482.47;6245803;22;20252;-58
2022/09/14 01:05:28;;;;;;;1999.90;999.90;;;;;;;18.81;100.00;93482.22;6246006;22;20251;-59
2022/09/14 01:08:17;;;;;;;1999.90;999.90;;;;;;;18.82;100.00;93488.50;6246690;23;20164;-56
2022/09/14 01:10:53;;;;;;;1999.90;999.90;;;;;;;18.84;100.00;93481.19;6246319;23;20161;-57
2022/09/14 01:13:32;;;;;;;1999.90;999.90;;;;;;;18.84;100.00;93480.44;6271658;22;20266;-59
2022/09/14 01:16:26;;;;;;;1999.90;999.90;;;;;;;18.85;100.00;93462.59;6246247;23;20169;-59
2022/09/14 01:18:57;;;;;;;1999.90;999.90;;;;;;;18.81;100.00;93459.31;6202637;23;20173;-58
2022/09/14 01:21:36;;;;;;;1999.90;999.90;;;;;;;18.79;100.00;93453.53;6271650;22;20170;-58
2022/09/14 01:24:13;;;;;;;1999.90;999.90;;;;;;;18.81;100.00;93453.78;6246216;23;20169;-58
2022/09/14 01:27:08;;;;;;;1999.90;999.90;;;;;;;18.82;100.00;93438.69;6246094;23;20239;-58
2022/09/14 01:29:41;;;;;;;1999.90;999.90;;;;;;;18.82;100.00;93433.94;6270938;22;20204;-59
2022/09/14 01:32:43;;;;;;;1999.90;999.90;;;;;;;18.77;100.00;93431.94;6246230;23;20165;-58
2022/09/14 01:35:26;;;;;;;1999.90;999.90;;;;;;;18.68;100.00;93434.16;6271333;22;20176;-58
2022/09/14 01:38:17;;;;;;;1999.90;999.90;;;;;;;18.62;100.00;93425.13;6246082;23;20247;-59
2022/09/14 01:40:49;;;;;;;1999.90;999.90;;;;;;;18.61;100.00;93412.56;6271740;22;20168;-58
2022/09/14 01:43:39;;;;;;;1999.90;999.90;;;;;;;18.57;100.00;93407.28;6245935;23;20185;-58
2022/09/14 01:46:19;;;;;;;1999.90;999.90;;;;;;;18.57;100.00;93417.56;6246098;23;20192;-58
2022/09/14 01:48:52;;;;;;;1999.90;999.90;;;;;;;18.56;100.00;93411.31;6271436;22;20171;-58
2022/09/14 01:51:25;;;;;;;1999.90;999.90;;;;;;;18.54;100.00;93404.78;6246086;23;20189;-57
2022/09/14 01:54:01;;;;;;;1999.90;999.90;;;;;;;18.46;100.00;93409.28;6271485;22;20169;-59
2022/09/14 01:56:36;;;;;;;1999.90;999.90;;;;;;;18.40;100.00;93403.00;6245879;23;20164;-58
2022/09/14 01:59:12;;;;;;;1999.90;999.90;;;;;;;18.38;100.00;93395.22;6246107;23;20172;-58
2022/09/14 02:02:08;;;;;;;1999.90;999.90;;;;;;;18.37;100.00;93381.91;6271530;22;20550;-57
2022/09/14 02:04:47;;;;;;;1999.90;999.90;;;;;;;18.32;100.00;93385.41;6270819;22;20193;-57
2022/09/14 02:07:13;;;;;;;1999.90;999.90;;;;;;;18.27;100.00;93386.13;6245666;23;20225;-58
2022/09/14 02:09:39;;;;;;;1999.90;999.90;;;;;;;18.21;100.00;93396.44;6245564;23;20154;-59
2022/09/14 02:12:04;;;;;;;1999.90;999.90;;;;;;;18.22;100.00;93397.94;6246175;22;20214;-57
2022/09/14 02:14:30;;;;;;;1999.90;999.90;;;;;;;18.32;100.00;93390.91;6271103;22;20168;-59
2022/09/14 02:16:56;;;;;;;1999.90;999.90;;;;;;;18.33;100.00;93375.84;6270974;22;20169;-57
2022/09/14 02:19:24;;;;;;;1999.90;999.90;;;;;;;18.31;100.00;93384.63;6246041;23;20205;-57
2022/09/14 02:21:50;;;;;;;1999.90;999.90;;;;;;;18.30;100.00;93393.41;6245920;23;20172;-58
2022/09/14 02:24:16;;;;;;;1999.90;999.90;;;;;;;18.35;100.00;93387.16;6245994;23;20197;-56
2022/09/14 02:26:41;;;;;;;1999.90;999.90;;;;;;;18.33;100.00;93393.19;6245414;23;20169;-58
2022/09/14 02:29:07;;;;;;;1999.90;999.90;;;;;;;18.35;100.00;93387.16;6245925;23;20244;-58
2022/09/14 02:31:51;;;;;;;1999.90;999.90;;;;;;;18.34;100.00;93394.69;6246083;22;20176;-59
2022/09/14 02:34:36;;;;;;;1999.90;999.90;;;;;;;18.43;100.00;93390.97;6270898;22;20161;-58
2022/09/14 02:37:01;;;;;;;1999.90;999.90;;;;;;;18.45;100.00;93394.72;6245963;23;20169;-58
2022/09/14 02:39:57;;;;;;;1999.90;999.90;;;;;;;18.47;100.00;93397.72;6271008;22;20195;-57
2022/09/14 02:42:44;;;;;;;1999.90;999.90;;;;;;;18.51;100.00;93403.00;6271454;22;20169;-58
2022/09/14 02:45:34;;;;;;;1999.90;999.90;;;;;;;18.52;100.00;93399.75;6270930;22;20211;-58
2022/09/14 02:48:16;;;;;;;1999.90;999.90;;;;;;;18.54;100.00;93396.47;6271823;22;20153;-58
2022/09/14 02:50:55;;;;;;;1999.90;999.90;;;;;;;18.53;100.00;93395.72;6271202;22;20192;-58
2022/09/14 02:53:29;;;;;;;1999.90;999.90;;;;;;;18.53;100.00;93392.97;6245231;23;20165;-58
2022/09/14 02:55:59;;;;;;;1999.90;999.90;;;;;;;18.55;100.00;93381.41;6271440;22;20165;-58
2022/09/14 02:58:39;;;;;;;1999.90;999.90;;;;;;;18.51;100.00;93367.06;6245575;22;20161;-56
2022/09/14 03:01:06;;;;;;;1999.90;999.90;;;;;;;18.47;100.00;93363.81;6245377;23;20199;-57
2022/09/14 03:03:31;;;;;;;1999.90;999.90;;;;;;;18.38;100.00;93359.28;6245053;23;20515;-58
2022/09/14 03:05:57;;;;;;;1999.90;999.90;;;;;;;18.34;100.00;93355.22;6245192;22;20188;-57
2022/09/14 03:08:24;;;;;;;1999.90;999.90;;;;;;;18.29;100.00;93359.50;6271303;22;20338;-58
2022/09/14 03:10:49;;;;;;;1999.90;999.90;;;;;;;18.29;100.00;93353.97;6245381;23;20168;-58
2022/09/14 03:13:15;;;;;;;1999.90;999.90;;;;;;;18.32;100.00;93346.69;6270473;22;20169;-58
2022/09/14 03:15:40;;;;;;;1999.90;999.90;;;;;;;18.31;100.00;93339.66;6245208;23;20161;-58
2022/09/14 03:18:06;;;;;;;1999.90;999.90;;;;;;;18.34;100.00;93338.66;6270632;22;20157;-58
2022/09/14 03:20:32;;;;;;;1999.90;999.90;;;;;;;18.40;100.00;93348.47;6245613;23;20168;-58
2022/09/14 03:22:59;;;;;;;1999.90;999.90;;;;;;;18.40;100.00;93350.50;6244792;22;20188;-58
2022/09/14 03:25:24;;;;;;;1999.90;999.90;;;;;;;18.42;100.00;93361.78;6244926;23;20244;-58
2022/09/14 03:27:53;;;;;;;1999.90;999.90;;;;;;;18.42;100.00;93356.25;6270439;22;20200;-59
2022/09/14 03:30:19;;;;;;;1999.90;999.90;;;;;;;18.44;100.00;93351.75;6270384;22;20184;-55
2022/09/14 03:32:45;;;;;;;1999.90;999.90;;;;;;;18.47;100.00;93347.22;6244728;22;20165;-58
2022/09/14 03:35:11;;;;;;;1999.90;999.90;;;;;;;18.51;100.00;93353.25;6244902;22;20162;-57
2022/09/14 03:37:38;;;;;;;1999.90;999.90;;;;;;;18.52;100.00;93352.00;6270352;22;20258;-58
2022/09/14 03:40:04;;;;;;;1999.90;999.90;;;;;;;18.51;100.00;93354.00;6270427;22;20165;-58
2022/09/14 03:42:29;;;;;;;1999.90;999.90;;;;;;;18.52;100.00;93349.97;6270111;22;20169;-61
2022/09/14 03:44:55;;;;;;;1999.90;999.90;;;;;;;18.52;100.00;93354.75;6270384;22;20161;-58
2022/09/14 03:47:21;;;;;;;1999.90;999.90;;;;;;;18.52;100.00;93354.75;6245267;22;20168;-58
2022/09/14 03:49:46;;;;;;;1999.90;999.90;;;;;;;18.47;100.00;93352.75;6244473;23;20189;-59
2022/09/14 03:52:11;;;;;;;1999.90;999.90;;;;;;;18.44;100.00;93354.53;6270312;22;20157;-58
2022/09/14 03:54:37;;;;;;;1999.90;999.90;;;;;;;18.44;100.00;93348.22;6271927;22;20591;-57
2022/09/14 03:57:02;;;;;;;1999.90;999.90;;;;;;;18.44;100.00;93354.53;6271594;22;20157;-58
2022/09/14 03:59:28;;;;;;;1999.90;999.90;;;;;;;18.45;100.00;93350.50;6246854;23;20232;-58
2022/09/14 04:01:53;;;;;;;1999.90;999.90;;;;;;;18.38;100.00;93351.00;6271709;22;20287;-59
2022/09/14 04:04:19;;;;;;;1999.90;999.90;;;;;;;18.36;100.00;93336.91;6271832;22;20181;-58
2022/09/14 04:06:44;;;;;;;1999.90;999.90;;;;;;;18.35;100.00;93340.16;6271280;22;20233;-59
2022/09/14 04:09:09;;;;;;;1999.90;999.90;;;;;;;18.33;100.00;93345.44;6272191;22;20165;-58
2022/09/14 04:11:35;;;;;;;1999.90;999.90;;;;;;;18.33;100.00;93342.66;6271763;22;20158;-57
2022/09/14 04:14:02;;;;;;;1999.90;999.90;;;;;;;18.34;100.00;93338.66;6271577;22;20161;-57
2022/09/14 04:16:28;;;;;;;1999.90;999.90;;;;;;;18.39;100.00;93346.97;6271277;22;20503;-59
2022/09/14 04:18:53;;;;;;;1999.90;999.90;;;;;;;18.45;100.00;93344.19;6245943;22;20228;-58
2022/09/14 04:21:23;;;;;;;1999.90;999.90;;;;;;;18.52;100.00;93360.28;6271592;22;20200;-57
2022/09/14 04:23:52;;;;;;;1999.90;999.90;;;;;;;18.65;100.00;93368.84;6271832;22;20188;-58
2022/09/14 04:26:19;;;;;;;1999.90;999.90;;;;;;;18.66;100.00;93376.63;6246476;22;20162;-58
2022/09/14 04:28:45;;;;;;;1999.90;999.90;;;;;;;18.68;100.00;93379.63;6246058;22;20165;-57
2022/09/14 04:31:11;;;;;;;1999.90;999.90;;;;;;;18.66;100.00;93373.09;6272016;22;20165;-58
2022/09/14 04:33:39;;;;;;;1999.90;999.90;;;;;;;18.65;100.00;93374.34;6246008;22;20165;-59
2022/09/14 04:36:10;;;;;;;1999.90;999.90;;;;;;;18.62;100.00;93367.06;6245858;23;20161;-57
2022/09/14 04:38:37;;;;;;;1999.90;999.90;;;;;;;18.65;100.00;93368.84;6245626;23;20161;-59
2022/09/14 04:41:14;;;;;;;1999.90;999.90;;;;;;;18.72;100.00;93368.31;6245834;23;20215;-58
2022/09/14 04:43:41;;;;;;;1999.90;999.90;;;;;;;18.75;100.00;93370.06;6246241;23;20180;-58
2022/09/14 04:46:10;;;;;;;1999.90;999.90;;;;;;;18.79;100.00;93367.78;6245803;23;20172;-59
2022/09/14 04:48:36;;;;;;;1999.90;999.90;;;;;;;18.83;100.00;93368.31;6271234;22;20199;-58
2022/09/14 04:51:09;;;;;;;1999.90;999.90;;;;;;;18.85;100.00;93376.84;6245990;22;20177;-59
2022/09/14 04:53:37;;;;;;;1999.90;999.90;;;;;;;18.85;100.00;93361.00;6271625;22;20223;-58
2022/09/14 04:56:06;;;;;;;1999.90;999.90;;;;;;;18.88;100.00;93368.28;6245812;22;20161;-58
2022/09/14 04:58:32;;;;;;;1999.90;999.90;;;;;;;18.93;100.00;93372.28;6271886;22;20165;-59
2022/09/14 05:01:05;;;;;;;1999.90;999.90;;;;;;;18.99;100.00;93375.81;6271100;22;20161;-58
2022/09/14 05:03:31;;;;;;;1999.90;999.90;;;;;;;19.01;100.00;93387.09;6246059;23;20178;-60
2022/09/14 05:06:04;;;;;;;1999.90;999.90;;;;;;;19.02;100.00;93394.16;6246164;22;20171;-58
2022/09/14 05:08:30;;;;;;;1999.90;999.90;;;;;;;19.06;100.00;93391.91;6246075;22;20221;-58
2022/09/14 05:10:57;;;;;;;1999.90;999.90;;;;;;;19.07;100.00;93385.84;6271366;22;20172;-58
2022/09/14 05:13:23;;;;;;;1999.90;999.90;;;;;;;19.09;100.00;93385.34;6245858;23;20169;-56
2022/09/14 05:15:49;;;;;;;1999.90;999.90;;;;;;;19.10;100.00;93390.38;6245413;22;20169;-58
2022/09/14 05:18:15;;;;;;;1999.90;999.90;;;;;;;19.12;100.00;93384.31;6246027;23;20185;-59
2022/09/14 05:20:40;;;;;;;1999.90;999.90;;;;;;;19.16;100.00;93380.03;6245853;22;20157;-59
2022/09/14 05:23:05;;;;;;;1999.90;999.90;;;;;;;19.20;100.00;93383.28;6270826;22;20232;-59
2022/09/14 05:25:31;;;;;;;1999.90;999.90;;;;;;;19.23;100.00;93371.22;6271427;22;20189;-59
2022/09/14 05:27:56;;;;;;;1999.90;999.90;;;;;;;19.34;100.00;93376.00;6270929;22;20172;-58
2022/09/14 05:30:22;;;;;;;1999.90;999.90;;;;;;;19.45;100.00;93373.19;6271162;22;20176;-57
2022/09/14 05:32:47;;;;;;;1999.90;999.90;;;;;;;19.55;100.00;93370.88;6245573;23;20222;-58
2022/09/14 05:35:13;;;;;;;1999.90;999.90;;;;;;;19.64;100.00;93367.81;6271318;22;20497;-58
2022/09/14 05:37:38;;;;;;;1999.90;999.90;;;;;;;19.75;100.00;93373.31;6271035;22;20173;-57
2022/09/14 05:40:04;;;;;;;1999.90;999.90;;;;;;;19.83;100.00;93366.72;6271293;22;20164;-58
2022/09/14 05:42:30;;;;;;;1999.90;999.90;;;;;;;19.94;100.00;93374.97;6271465;22;20192;-59
2022/09/14 05:44:55;;;;;;;1999.90;999.90;;;;;;;20.03;100.00;93371.13;6245531;22;20160;-59
2022/09/14 05:47:21;;;;;;;1999.90;999.90;;;;;;;20.07;100.00;93375.13;6270692;22;20198;-59
2022/09/14 05:49:46;;;;;;;1999.90;999.90;;;;;;;20.09;100.00;93361.50;6270864;22;20195;-59
2022/09/14 05:52:11;;;;;;;1999.90;999.90;;;;;;;20.15;100.00;93359.50;6271246;22;20172;-58
2022/09/14 05:54:37;;;;;;;1999.90;999.90;;;;;;;20.22;100.00;93358.94;6271025;22;20161;-58
2022/09/14 05:57:02;;;;;;;1999.90;999.90;;;;;;;20.30;100.00;93365.44;6271304;22;20161;-59
2022/09/14 05:59:30;;;;;;;1999.90;999.90;;;;;;;20.37;100.00;93369.66;6271348;22;20157;-59
2022/09/14 06:01:56;;;;;;;1999.90;999.90;;;;;;;20.43;100.00;93365.56;6270830;22;20162;-58
2022/09/14 06:04:22;;;;;;;1999.90;999.90;;;;;;;20.46;100.00;93364.56;6245795;22;20185;-58
2022/09/14 06:06:47;;;;;;;1999.90;999.90;;;;;;;20.52;100.00;93361.72;6245369;23;20193;-59
2022/09/14 06:09:14;;;;;;;1999.90;999.90;;;;;;;20.53;100.00;93369.53;6270958;22;20164;-59
2022/09/14 06:11:40;;;;;;;1999.90;999.90;;;;;;;20.58;100.00;93365.97;6245118;23;20165;-57
2022/09/14 06:14:06;;;;;;;1999.90;999.90;;;;;;;20.61;100.00;93364.94;6270756;22;20180;-57
2022/09/14 06:16:32;;;;;;;1999.90;999.90;;;;;;;20.70;100.00;93370.16;6270401;22;20244;-59
2022/09/14 06:18:58;;;;;;;1999.90;999.90;;;;;;;20.78;100.00;93382.19;6245455;23;20169;-58
2022/09/14 06:21:28;;;;;;;1999.90;999.90;;;;;;;20.82;100.00;93379.88;6270763;22;20184;-58
2022/09/14 06:23:54;;;;;;;1999.90;999.90;;;;;;;20.82;100.00;93390.97;6245200;23;20263;-59
2022/09/14 06:26:19;;;;;;;1999.90;999.90;;;;;;;20.81;100.00;93400.59;6270869;22;20183;-57
2022/09/14 06:28:45;;;;;;;1999.90;999.90;;;;;;;20.74;100.00;93395.59;6245382;22;20165;-59
2022/09/14 06:31:13;;;;;;;1999.90;999.90;;;;;;;20.52;100.00;93389.47;6271252;22;20165;-61
2022/09/14 06:33:45;;;;;;;1999.90;999.90;;;;;;;20.50;100.00;93381.66;6271279;22;20165;-61
2022/09/14 06:36:13;;;;;;;1999.90;999.90;;;;;;;20.56;100.00;93378.84;6245426;23;20595;-60
2022/09/14 06:38:39;;;;;;;1999.90;999.90;;;;;;;20.59;100.00;93378.59;6245598;22;20665;-58
2022/09/14 06:41:08;;;;;;;1999.90;999.90;;;;;;;20.58;100.00;93384.63;6245094;22;20161;-58
2022/09/14 06:43:35;;;;;;;1999.90;999.90;;;;;;;20.59;100.00;93377.81;6270519;22;20271;-59
2022/09/14 06:46:08;;;;;;;1999.90;999.90;;;;;;;20.67;100.00;93379.50;6245006;22;20243;-59
2022/09/14 06:48:36;;;;;;;1999.90;999.90;;;;;;;20.75;100.00;93386.00;6244990;23;20164;-58
2022/09/14 06:51:34;;;;;;;1999.90;999.90;;;;;;;20.81;100.00;93388.72;6245077;22;20188;-56
2022/09/14 06:54:00;;;;;;;1999.90;999.90;;;;;;;20.82;100.00;93390.97;6270989;22;20173;-57
2022/09/14 06:56:35;;;;;;;1999.90;999.90;;;;;;;20.85;100.00;93389.94;6245081;23;20161;-57
2022/09/14 06:59:03;;;;;;;1999.90;999.90;;;;;;;20.84;100.00;93371.81;6245442;23;20182;-57
2022/09/14 07:01:29;;;;;;;1999.90;999.90;;;;;;;20.74;100.00;93353.97;6244746;23;20158;-58
2022/09/14 07:03:55;;;;;;;1999.90;999.90;;;;;;;20.63;100.00;93345.75;6270503;22;20193;-57
2022/09/14 07:06:23;;;;;;;1999.90;999.90;;;;;;;20.56;100.00;93335.22;6245099;23;20157;-56
2022/09/14 07:08:49;;;;;;;1999.90;999.90;;;;;;;20.51;100.00;93327.72;6245202;23;20192;-58
2022/09/14 07:11:17;;;;;;;1999.90;999.90;;;;;;;20.60;100.00;93338.47;6245089;22;20164;-54
2022/09/14 07:13:43;;;;;;;1999.90;999.90;;;;;;;20.67;100.00;93329.56;6245069;23;20168;-57
2022/09/14 07:16:09;;;;;;;1999.90;999.90;;;;;;;20.76;100.00;93326.44;6270831;22;20199;-62
2022/09/14 07:18:35;;;;;;;1999.90;999.90;;;;;;;20.95;100.00;93327.31;6245147;22;20168;-60
2022/09/14 07:21:06;;;;;;;1999.90;999.90;;;;;;;21.06;100.00;93329.97;6244930;23;20183;-61
2022/09/14 07:23:32;;;;;;;1999.90;999.90;;;;;;;21.18;100.00;93334.13;6245199;23;20211;-60
2022/09/14 07:25:59;;;;;;;1999.90;999.90;;;;;;;21.28;100.00;93343.63;6244495;23;20180;-61
2022/09/14 07:28:24;;;;;;;1999.90;999.90;;;;;;;21.35;100.00;93343.00;6246329;22;20173;-61
2022/09/14 07:30:49;;;;;;;1999.90;999.90;;;;;;;21.41;100.00;93340.94;6271821;22;20217;-60
2022/09/14 07:33:15;;;;;;;1999.90;999.90;;;;;;;21.54;100.00;93349.38;6271746;22;20243;-60
2022/09/14 07:35:40;;;;;;;1999.90;999.90;;;;;;;21.71;100.00;93346.38;6271588;22;20161;-61
2022/09/14 07:38:06;;;;;;;1999.90;999.90;;;;;;;21.91;100.00;93352.19;6271582;22;20173;-60
2022/09/14 07:40:31;;;;;;;1999.90;999.90;;;;;;;22.08;100.00;93347.13;6271467;22;20181;-61
2022/09/14 07:42:56;;;;;;;1999.90;999.90;;;;;;;22.23;100.00;93349.47;6271775;22;20185;-61
2022/09/14 07:45:22;;;;;;;1999.90;999.90;;;;;;;22.33;100.00;93345.75;6272231;22;20163;-61
2022/09/14 07:47:47;;;;;;;1999.90;999.90;;;;;;;22.42;100.00;93342.59;6271595;22;20199;-60
2022/09/14 07:50:13;;;;;;;1999.90;999.90;;;;;;;22.60;100.00;93340.31;6271827;22;20181;-59
2022/09/14 07:52:39;;;;;;;1999.90;999.90;;;;;;;22.79;100.00;93335.47;6271636;22;20275;-60
2022/09/14 07:55:05;;;;;;;1999.90;999.90;;;;;;;23.03;100.00;93324.13;6272216;22;20193;-51
2022/09/14 07:57:31;;;;;;;1999.90;999.90;;;;;;;23.25;100.00;93320.97;6245830;22;20157;-55
2022/09/14 07:59:57;;;;;;;1999.90;999.90;;;;;;;23.88;100.00;93301.91;6246110;23;20164;-55
2022/09/14 08:02:23;;;;;;;1999.90;999.90;;;;;;;24.47;100.00;93286.38;6272350;22;20165;-51
2022/09/14 08:04:52;;;;;;;1999.90;999.90;;;;;;;25.18;100.00;93259.41;6245747;23;20212;-57
2022/09/14 08:07:18;;;;;;;1999.90;999.90;;;;;;;25.70;100.00;93179.88;6271249;22;20211;-50
2022/09/14 08:09:44;;;;;;;1999.90;999.90;;;;;;;26.02;100.00;93552.38;6245829;23;20162;-55
2022/09/14 08:12:09;;;;;;;1999.90;999.90;;;;;;;26.38;100.00;94082.47;6272015;22;20172;-52
2022/09/14 08:14:35;;;;;;;1999.90;999.90;;;;;;;26.57;100.00;94272.84;6245956;23;20166;-53
2022/09/14 08:17:01;;;;;;;1999.90;999.90;;;;;;;27.11;100.00;94344.06;6246428;23;20171;-49
2022/09/14 08:19:26;;;;;;;1999.90;999.90;;;;;;;27.29;100.00;94376.16;6245778;23;20172;-54
2022/09/14 08:21:52;;;;;;;1999.90;999.90;;;;;;;27.29;100.00;94376.16;6245838;23;20193;-55
2022/09/14 08:24:19;;;;;;;1999.90;999.90;;;;;;;27.92;100.00;94343.06;6271368;22;20213;-53
2022/09/14 08:26:46;;;;;;;1999.90;999.90;;;;;;;27.86;100.00;94348.03;6246394;22;20172;-57
2022/09/14 08:29:13;;;;;;;1999.90;999.90;;;;;;;27.55;100.00;94354.50;6271455;22;20165;-50
2022/09/14 08:31:39;;;;;;;1999.90;999.90;;;;;;;27.67;100.00;94358.59;6245720;23;20161;-57
2022/09/14 08:34:06;;;;;;;1999.90;999.90;;;;;;;27.75;100.00;94372.75;6271767;22;20173;-51
2022/09/14 08:36:37;;;;;;;1999.90;999.90;;;;;;;27.53;100.00;94379.53;6246263;23;20169;-54
2022/09/14 08:39:08;;;;;;;1999.90;999.90;;;;;;;28.15;100.00;94391.84;6245787;22;20172;-53
2022/09/14 08:41:42;;;;;;;1999.90;999.90;;;;;;;28.74;100.00;94409.25;6246044;22;20227;-57
2022/09/14 08:44:26;;;;;;;1999.90;999.90;;;;;;;30.17;100.00;94428.16;6271210;22;20246;-52
2022/09/14 08:47:02;;;;;;;1999.90;999.90;;;;;;;31.39;100.00;94442.91;6271631;22;20176;-54
2022/09/14 08:49:55;;;;;;;1999.90;999.90;;;;;;;32.29;100.00;94447.78;6245438;23;20161;-48
2022/09/14 08:52:34;;;;;;;1999.90;999.90;;;;;;;33.40;91.25;94445.84;6271470;22;20173;-55
2022/09/14 08:55:26;;;;;;;1999.90;999.90;;;;;;;33.76;85.70;94439.75;6246332;23;20196;-52
2022/09/14 08:58:16;;;;;;;1999.90;999.90;;;;;;;32.69;87.16;94440.13;6271907;22;20165;-51
2022/09/14 09:00:44;;;;;;;1999.90;999.90;;;;;;;33.83;84.82;94444.59;6272120;22;20161;-51
2022/09/14 09:03:52;;;;;;;1999.90;999.90;;;;;;;34.42;78.24;94456.00;6271745;22;20264;-51
2022/09/14 09:06:40;;;;;;;1999.90;999.90;;;;;;;33.84;78.27;94444.03;6245008;23;20172;-51
2022/09/14 09:09:27;;;;;;;1999.90;999.90;;;;;;;33.42;81.45;94448.88;6272004;22;20191;-51
2022/09/14 09:11:54;;;;;;;1999.90;999.90;;;;;;;32.80;83.73;94463.09;6270921;22;20169;-53
2022/09/14 09:14:32;;;;;;;1999.90;999.90;;;;;;;32.98;80.48;94455.50;6271061;22;20214;-48
2022/09/14 09:17:02;;;;;;;1999.90;999.90;;;;;;;33.20;78.30;94466.72;6270931;22;20165;-53
2022/09/14 09:19:33;;;;;;;1999.90;999.90;;;;;;;32.37;83.18;94463.44;6245644;23;20260;-55
2022/09/14 09:22:02;;;;;;;1999.90;999.90;;;;;;;32.79;83.90;94466.50;6271751;22;20173;-52
2022/09/14 09:24:42;;;;;;;1999.90;999.90;;;;;;;33.22;81.28;94469.72;6271629;22;20310;-52
2022/09/14 09:27:11;;;;;;;1999.90;999.90;;;;;;;34.02;76.49;94478.09;6245437;23;20228;-52
2022/09/14 09:29:37;;;;;;;1999.90;999.90;;;;;;;34.59;73.84;94475.88;6245644;23;20169;-49
2022/09/14 09:32:06;;;;;;;1999.90;999.90;;;;;;;34.47;74.72;94480.53;6245531;23;20165;-53
2022/09/14 09:34:33;;;;;;;1999.90;999.90;;;;;;;33.70;74.33;94476.06;6271513;22;20192;-52
2022/09/14 09:36:59;;;;;;;1999.90;999.90;;;;;;;32.58;80.33;94475.25;6270878;22;20188;-54
2022/09/14 09:39:28;;;;;;;1999.90;999.90;;;;;;;32.04;84.06;94467.41;6245758;23;20227;-56
2022/09/14 09:42:00;;;;;;;1999.90;999.90;;;;;;;31.26;89.65;94468.50;6245646;22;20199;-49
2022/09/14 09:44:26;;;;;;;1999.90;999.90;;;;;;;30.50;100.00;94455.38;6246085;22;20181;-56
2022/09/14 09:46:58;;;;;;;1999.90;999.90;;;;;;;30.21;100.00;94454.66;6271030;22;20185;-52
2022/09/14 09:49:33;;;;;;;1999.90;999.90;;;;;;;30.38;100.00;94476.75;6246609;22;20157;-56
2022/09/14 09:52:11;;;;;;;1999.90;999.90;;;;;;;29.70;100.00;94479.06;6245086;23;20176;-53
2022/09/14 09:54:39;;;;;;;1999.90;999.90;;;;;;;29.19;100.00;94477.22;6245797;23;20171;-55
2022/09/14 09:57:28;;;;;;;1999.90;999.90;;;;;;;30.26;100.00;94476.31;6245202;23;20176;-50
2022/09/14 10:00:20;;;;;;;1999.90;999.90;;;;;;;30.72;100.00;94466.78;6229308;23;20195;-53
2022/09/14 10:02:46;;;;;;;1999.90;999.90;;;;;;;31.71;92.85;94479.09;6271803;22;20225;-53
2022/09/14 10:05:30;;;;;;;1999.90;999.90;;;;;;;31.69;88.75;94465.53;6271562;22;20184;-49
2022/09/14 10:08:05;;;;;;;1999.90;999.90;;;;;;;30.89;93.22;94457.84;6245394;23;20174;-49
2022/09/14 10:10:33;;;;;;;1999.90;999.90;;;;;;;30.35;96.81;94446.84;6245715;23;20199;-51
2022/09/14 10:13:00;;;;;;;1999.90;999.90;;;;;;;30.01;100.00;94437.81;6270898;22;20165;-51
2022/09/14 10:15:29;;;;;;;1999.90;999.90;;;;;;;30.62;99.68;94439.63;6270720;22;20165;-53
2022/09/14 10:18:17;;;;;;;1999.90;999.90;;;;;;;32.57;86.94;94437.00;6245474;23;20181;-55
2022/09/14 10:20:51;;;;;;;1999.90;999.90;;;;;;;33.52;78.53;94443.31;6245904;23;20243;-53
2022/09/14 10:23:17;;;;;;;1999.90;999.90;;;;;;;33.61;76.37;94437.75;6270988;22;20196;-53
2022/09/14 10:25:43;;;;;;;1999.90;999.90;;;;;;;33.11;76.91;94436.19;6270772;22;20207;-54
2022/09/14 10:28:27;;;;;;;1999.90;999.90;;;;;;;33.32;75.12;94433.78;6270777;22;20188;-49
2022/09/14 10:31:01;;;;;;;1999.90;999.90;;;;;;;33.58;75.26;94433.25;6270558;22;20219;-50
2022/09/14 10:33:28;;;;;;;1999.90;999.90;;;;;;;32.56;81.11;94421.31;6245723;23;20179;-51
2022/09/14 10:36:18;;;;;;;1999.90;999.90;;;;;;;31.24;89.19;94425.91;6270826;22;20211;-53
2022/09/14 10:39:09;;;;;;;1999.90;999.90;;;;;;;30.99;94.61;94416.47;6245738;23;20252;-55
2022/09/14 10:41:47;;;;;;;1999.90;999.90;;;;;;;30.64;97.23;94400.38;6271077;22;20181;-55
2022/09/14 10:44:38;;;;;;;1999.90;999.90;;;;;;;30.26;100.00;94407.91;6244939;23;20181;-50
2022/09/14 10:47:31;;;;;;;1999.90;999.90;;;;;;;30.33;100.00;94401.53;6270705;22;20165;-51
2022/09/14 10:50:34;;;;;;;1999.90;999.90;;;;;;;30.31;100.00;94387.25;6270457;22;20196;-51
2022/09/14 10:53:21;;;;;;;1999.90;999.90;;;;;;;30.39;100.00;94388.81;6270481;22;20169;-54
2022/09/14 10:56:04;;;;;;;1999.90;999.90;;;;;;;30.38;100.00;94375.28;6270769;22;20168;-52
2022/09/14 10:59:00;;;;;;;1999.90;999.90;;;;;;;30.01;100.00;94378.63;6245105;23;20179;-55
2022/09/14 11:01:49;;;;;;;1999.90;999.90;;;;;;;30.22;100.00;94380.09;6270412;22;20169;-54
2022/09/14 11:04:43;;;;;;;1999.90;999.90;;;;;;;31.06;97.70;94376.97;6245462;23;20188;-51